Chain of Rocks, Missouri
Current Conditions -  °F | °C
As of 6:54 AM on Thursday 18 Dec 2014 (Local Time) from KSET Reporting Station
Overcast Overcast  
Wind Chill: 29°   Ceiling: 6500
Heat Index: 29°   Visibility: 10mi
Dew Point: 23°   Wind: 3mph
Humidity: 78%   Direction: 30°NNE
Pressure: 30.3"   Gusts: NA
Location:  38.9362°N, 90.7728°W
Report Text: KSET 181254Z AUTO 03003KT 10SM OVC065 M02/M05 A3030 RMK AO2 SLP265 T10171050
Loading
Personal Weather Stations






























Interactive Weather Map New forecast layout! Learn more

10-Day Weather Forecast

Advertisements
Track Severe Weather on mobile